Terminal Aerodrome Forecast
Issued by NWS Twin Cities, MN

Home | Current Version | Previous Version | Graphics & Text | Print | Product List | Glossary On
Versions: 1 2 3 4 5 6 7 8 9 10 11 12 13 14 15 16 17 18 19 20 21
000
FTUS43 KMPX 281720
TAFEAU
TAF
KEAU 281720Z 2818/2918 07004KT P6SM FEW250
     FM290900 06004KT 4SM BR SCT010
      TEMPO 2909/2912 1SM BR BKN009
     FM291400 08008KT P6SM OVC250=

USA.gov is the U.S. government's official web portal to all federal, state and local government web resources and services.